Time;durP1;ratioP1;P1;durP2;ratioP2;P2;SDS_P1;SDS_P2;PMS_P1;PMS_P2;Temp;Humidity;BMP_temperature;BMP_pressure;BME280_temperature;BME280_humidity;BME280_pressure;Samples;Min_cycle;Max_cycle;Signal;HPM_P1;HPM_P2
2021/06/14 00:01:59;;;;;;;2.92;1.00;;;;;;;;;;5069187;28;20028;-78
2021/06/14 00:04:25;;;;;;;2.47;1.10;;;;;;;;;;5079107;28;20047;-79
2021/06/14 00:06:51;;;;;;;1.20;1.02;;;;;;;;;;5076699;28;20029;-79
2021/06/14 00:09:19;;;;;;;1.52;1.00;;;;;;;;;;5076320;28;20033;-78
2021/06/14 00:11:46;;;;;;;1.65;0.95;;;;;;;;;;5076599;28;20028;-79
2021/06/14 00:14:12;;;;;;;1.55;1.10;;;;;;;;;;5077475;28;20025;-79
2021/06/14 00:16:38;;;;;;;0.90;0.90;;;;;;;;;;5076500;28;20051;-78
2021/06/14 00:19:05;;;;;;;3.55;1.35;;;;;;;;;;5075119;28;20024;-78
2021/06/14 00:21:31;;;;;;;1.40;0.93;;;;;;;;;;5074589;28;20381;-79
2021/06/14 00:23:57;;;;;;;0.90;0.80;;;;;;;;;;5074352;28;20346;-78
2021/06/14 00:26:23;;;;;;;1.30;1.20;;;;;;;;;;5065916;28;20378;-79
2021/06/14 00:28:49;;;;;;;1.40;1.10;;;;;;;;;;5052574;28;20079;-78
2021/06/14 00:31:15;;;;;;;1.30;0.80;;;;;;;;;;5064281;28;20029;-78
2021/06/14 00:33:41;;;;;;;2.13;1.38;;;;;;;;;;5054420;28;20032;-80
2021/06/14 00:36:08;;;;;;;2.55;1.40;;;;;;;;;;5057944;28;20104;-77
2021/06/14 00:38:34;;;;;;;1.42;1.20;;;;;;;;;;5078280;28;20020;-77
2021/06/14 00:41:00;;;;;;;2.25;1.10;;;;;;;;;;5079051;28;20023;-79
2021/06/14 00:43:26;;;;;;;1.50;1.40;;;;;;;;;;5079468;28;20025;-78
2021/06/14 00:45:52;;;;;;;2.70;1.35;;;;;;;;;;5067508;28;20021;-79
2021/06/14 00:48:19;;;;;;;0.80;0.80;;;;;;;;;;5062393;28;20028;-77
2021/06/14 00:50:48;;;;;;;1.58;1.00;;;;;;;;;;5062229;28;20052;-78
2021/06/14 00:53:18;;;;;;;2.00;1.00;;;;;;;;;;5062785;28;20078;-78
2021/06/14 00:55:45;;;;;;;1.45;1.23;;;;;;;;;;5062553;28;20052;-78
2021/06/14 00:58:12;;;;;;;2.70;1.05;;;;;;;;;;5062421;28;20453;-78
2021/06/14 01:00:38;;;;;;;1.50;0.95;;;;;;;;;;5068798;28;20082;-78
2021/06/14 01:03:04;;;;;;;0.80;0.80;;;;;;;;;;5066623;28;20025;-77
2021/06/14 01:05:32;;;;;;;1.63;1.52;;;;;;;;;;5068401;28;20031;-77
2021/06/14 01:07:58;;;;;;;1.83;1.20;;;;;;;;;;5071720;28;20025;-77
2021/06/14 01:10:25;;;;;;;1.30;1.20;;;;;;;;;;5061908;28;20033;-77
2021/06/14 01:13:06;;;;;;;0.98;0.93;;;;;;;;;;5063915;28;20021;-77
2021/06/14 01:15:33;;;;;;;1.20;0.98;;;;;;;;;;5058975;28;20115;-78
2021/06/14 01:18:02;;;;;;;2.35;1.30;;;;;;;;;;5056372;28;20033;-78
2021/06/14 01:20:35;;;;;;;1.17;1.08;;;;;;;;;;5057046;28;20021;-80
2021/06/14 01:23:01;;;;;;;1.95;1.10;;;;;;;;;;5059398;28;20457;-80
2021/06/14 01:25:39;;;;;;;3.53;1.23;;;;;;;;;;5057215;28;20025;-80
2021/06/14 01:28:05;;;;;;;1.90;1.40;;;;;;;;;;5058358;28;20028;-80
2021/06/14 01:30:32;;;;;;;3.70;1.73;;;;;;;;;;5071295;28;20033;-80
2021/06/14 01:32:59;;;;;;;1.83;1.63;;;;;;;;;;5069945;28;20024;-80
2021/06/14 01:35:28;;;;;;;3.70;2.05;;;;;;;;;;5063449;28;20559;-80
2021/06/14 01:37:57;;;;;;;5.13;2.67;;;;;;;;;;5058452;28;20498;-80
2021/06/14 01:40:23;;;;;;;3.67;2.30;;;;;;;;;;5058147;28;20095;-81
2021/06/14 01:42:51;;;;;;;2.80;1.85;;;;;;;;;;5058620;28;20543;-79
2021/06/14 01:45:18;;;;;;;2.92;2.15;;;;;;;;;;5070965;28;20048;-80
2021/06/14 01:47:46;;;;;;;2.60;1.92;;;;;;;;;;5077771;28;20548;-79
2021/06/14 01:50:12;;;;;;;3.63;2.08;;;;;;;;;;5078810;28;20048;-80
2021/06/14 01:52:39;;;;;;;2.53;1.98;;;;;;;;;;5078321;28;20021;-81
2021/06/14 01:55:06;;;;;;;3.05;1.90;;;;;;;;;;5051942;28;20044;-79
2021/06/14 01:57:34;;;;;;;3.65;2.10;;;;;;;;;;5057783;28;20052;-80
2021/06/14 02:00:00;;;;;;;2.78;1.58;;;;;;;;;;5057655;28;20489;-79
2021/06/14 02:02:28;;;;;;;3.85;1.92;;;;;;;;;;5067425;28;20021;-78
2021/06/14 02:04:55;;;;;;;3.88;2.15;;;;;;;;;;5063987;28;20013;-78
2021/06/14 02:07:21;;;;;;;3.50;1.95;;;;;;;;;;5055906;28;20078;-78
2021/06/14 02:09:47;;;;;;;2.30;2.10;;;;;;;;;;5073713;28;20035;-79
2021/06/14 02:12:14;;;;;;;2.20;1.50;;;;;;;;;;5081456;28;20028;-78
2021/06/14 02:14:41;;;;;;;2.17;1.80;;;;;;;;;;5079804;28;20029;-79
2021/06/14 02:17:08;;;;;;;2.83;2.05;;;;;;;;;;5077243;28;20082;-80
2021/06/14 02:19:37;;;;;;;3.28;2.22;;;;;;;;;;5078696;28;20029;-79
2021/06/14 02:22:04;;;;;;;3.47;2.13;;;;;;;;;;5080694;28;20077;-79
2021/06/14 02:24:30;;;;;;;5.97;2.90;;;;;;;;;;5077546;28;20028;-79
2021/06/14 02:26:56;;;;;;;4.90;2.20;;;;;;;;;;5076235;28;20039;-80
2021/06/14 02:29:22;;;;;;;3.90;2.50;;;;;;;;;;5077127;28;20017;-81
2021/06/14 02:31:48;;;;;;;4.72;2.38;;;;;;;;;;5071517;28;20037;-80
2021/06/14 02:34:14;;;;;;;3.95;2.33;;;;;;;;;;5076025;28;20028;-80
2021/06/14 02:36:41;;;;;;;3.33;1.70;;;;;;;;;;5067236;28;20077;-80
2021/06/14 02:39:12;;;;;;;4.43;2.45;;;;;;;;;;5057814;28;20025;-80
2021/06/14 02:41:39;;;;;;;5.35;2.55;;;;;;;;;;5045727;28;20028;-78
2021/06/14 02:44:06;;;;;;;4.25;2.40;;;;;;;;;;5064005;28;20029;-79
2021/06/14 02:46:36;;;;;;;3.80;2.42;;;;;;;;;;5069013;28;20055;-79
2021/06/14 02:49:02;;;;;;;4.63;2.25;;;;;;;;;;5078441;28;20528;-80
2021/06/14 02:51:31;;;;;;;3.28;2.55;;;;;;;;;;5076619;28;20520;-79
2021/06/14 02:54:04;;;;;;;2.75;2.35;;;;;;;;;;5058628;28;20032;-79
2021/06/14 02:56:31;;;;;;;5.55;2.25;;;;;;;;;;5074617;28;20028;-80
2021/06/14 02:58:57;;;;;;;4.82;2.40;;;;;;;;;;5057919;28;20013;-81
2021/06/14 03:01:23;;;;;;;2.90;2.30;;;;;;;;;;5074996;28;20040;-81
2021/06/14 03:03:52;;;;;;;3.78;2.30;;;;;;;;;;5079139;28;20029;-81
2021/06/14 03:06:19;;;;;;;2.78;2.58;;;;;;;;;;5072108;28;20044;-79
2021/06/14 03:08:45;;;;;;;2.47;1.80;;;;;;;;;;5074585;28;20021;-80
2021/06/14 03:11:12;;;;;;;2.78;2.00;;;;;;;;;;5073991;28;20045;-78
2021/06/14 03:13:44;;;;;;;2.47;1.75;;;;;;;;;;5071286;28;20029;-78
2021/06/14 03:16:10;;;;;;;2.25;1.50;;;;;;;;;;5070857;28;20047;-80
2021/06/14 03:18:37;;;;;;;3.08;2.05;;;;;;;;;;5083895;28;20044;-78
2021/06/14 03:21:03;;;;;;;2.72;1.58;;;;;;;;;;5085997;28;20031;-80
2021/06/14 03:23:29;;;;;;;2.50;1.90;;;;;;;;;;5069876;28;20039;-80
2021/06/14 03:25:55;;;;;;;3.05;2.10;;;;;;;;;;5079247;28;20028;-78
2021/06/14 03:28:21;;;;;;;4.43;2.15;;;;;;;;;;5081308;28;20029;-77
2021/06/14 03:30:49;;;;;;;5.63;2.63;;;;;;;;;;5064529;28;20035;-79
2021/06/14 03:33:19;;;;;;;3.15;2.20;;;;;;;;;;5077029;28;20036;-77
2021/06/14 03:35:47;;;;;;;4.00;2.50;;;;;;;;;;5084229;28;20067;-77
2021/06/14 03:38:13;;;;;;;4.13;2.30;;;;;;;;;;5083238;28;20097;-79
2021/06/14 03:40:42;;;;;;;2.88;2.40;;;;;;;;;;5084420;28;20451;-78
2021/06/14 03:43:08;;;;;;;4.35;2.33;;;;;;;;;;5065915;28;20025;-79
2021/06/14 03:45:34;;;;;;;6.25;2.40;;;;;;;;;;5084925;28;20040;-78
2021/06/14 03:48:01;;;;;;;5.57;2.60;;;;;;;;;;5067065;28;20038;-79
2021/06/14 03:50:27;;;;;;;3.28;2.40;;;;;;;;;;5081881;28;20028;-80
2021/06/14 03:52:56;;;;;;;3.22;2.13;;;;;;;;;;5078542;28;20070;-80
2021/06/14 03:55:25;;;;;;;5.30;2.33;;;;;;;;;;5078792;28;20032;-80
2021/06/14 03:57:51;;;;;;;1.85;1.70;;;;;;;;;;5076895;28;20029;-80
2021/06/14 04:00:17;;;;;;;1.90;1.77;;;;;;;;;;5079674;28;20036;-78
2021/06/14 04:02:43;;;;;;;1.70;1.60;;;;;;;;;;5072212;28;20021;-79
2021/06/14 04:05:10;;;;;;;3.20;2.53;;;;;;;;;;5080362;28;20389;-78
2021/06/14 04:07:36;;;;;;;3.05;2.70;;;;;;;;;;5072688;28;20029;-79
2021/06/14 04:10:06;;;;;;;3.45;2.60;;;;;;;;;;5061315;28;20041;-78
2021/06/14 04:12:32;;;;;;;5.70;2.60;;;;;;;;;;5062709;28;20064;-79
2021/06/14 04:14:58;;;;;;;5.03;3.10;;;;;;;;;;5068088;28;20098;-79
2021/06/14 04:17:25;;;;;;;6.22;2.85;;;;;;;;;;5061499;28;20029;-79
2021/06/14 04:19:51;;;;;;;3.38;2.65;;;;;;;;;;5064981;28;20017;-78
2021/06/14 04:22:17;;;;;;;4.25;2.58;;;;;;;;;;5066462;28;20051;-79
2021/06/14 04:24:43;;;;;;;3.92;2.50;;;;;;;;;;5073861;28;20070;-79
2021/06/14 04:27:09;;;;;;;2.70;2.38;;;;;;;;;;5084931;28;20029;-78
2021/06/14 04:29:36;;;;;;;4.15;2.42;;;;;;;;;;5084672;28;20029;-80
2021/06/14 04:32:02;;;;;;;4.13;2.92;;;;;;;;;;5059192;28;20025;-78
2021/06/14 04:34:28;;;;;;;3.83;2.03;;;;;;;;;;5076403;28;20009;-78
2021/06/14 04:36:57;;;;;;;4.82;2.55;;;;;;;;;;5061230;28;20024;-79
2021/06/14 04:39:28;;;;;;;3.53;2.55;;;;;;;;;;5061207;28;20021;-84
2021/06/14 04:41:59;;;;;;;6.78;2.85;;;;;;;;;;5058436;28;20507;-83
2021/06/14 04:44:25;;;;;;;4.05;2.17;;;;;;;;;;5059592;28;20078;-83
2021/06/14 04:46:51;;;;;;;2.58;2.08;;;;;;;;;;5064891;28;20035;-81
2021/06/14 04:49:17;;;;;;;2.38;1.70;;;;;;;;;;5080711;28;20024;-83
2021/06/14 04:51:43;;;;;;;2.92;2.15;;;;;;;;;;5064811;28;20029;-82
2021/06/14 04:54:09;;;;;;;3.20;2.30;;;;;;;;;;5052925;28;20444;-82
2021/06/14 04:56:35;;;;;;;4.47;2.75;;;;;;;;;;5064738;28;20120;-82
2021/06/14 04:59:02;;;;;;;3.50;2.40;;;;;;;;;;5064545;28;20096;-83
2021/06/14 05:01:28;;;;;;;3.78;2.42;;;;;;;;;;5078874;28;20021;-82
2021/06/14 05:03:55;;;;;;;6.55;3.30;;;;;;;;;;5051012;28;20694;-83
2021/06/14 05:06:22;;;;;;;2.03;1.92;;;;;;;;;;5058167;28;20389;-83
2021/06/14 05:08:50;;;;;;;3.20;2.13;;;;;;;;;;5057439;28;20159;-83
2021/06/14 05:11:19;;;;;;;2.28;1.60;;;;;;;;;;5043196;28;20397;-82
2021/06/14 05:13:45;;;;;;;6.40;1.83;;;;;;;;;;5091620;28;20473;-84
2021/06/14 05:16:11;;;;;;;3.85;1.83;;;;;;;;;;5065618;28;20024;-84
2021/06/14 05:18:37;;;;;;;7.55;2.17;;;;;;;;;;5083791;28;20029;-83
2021/06/14 05:21:03;;;;;;;3.28;1.42;;;;;;;;;;5071377;28;20059;-83
2021/06/14 05:23:29;;;;;;;1.55;1.35;;;;;;;;;;5067396;28;20036;-82
2021/06/14 05:25:55;;;;;;;2.45;1.42;;;;;;;;;;5068059;28;20059;-84
2021/06/14 05:28:21;;;;;;;1.70;1.20;;;;;;;;;;5068590;28;20152;-84
2021/06/14 05:30:47;;;;;;;3.17;2.13;;;;;;;;;;5082364;28;20025;-84
2021/06/14 05:33:14;;;;;;;1.98;1.83;;;;;;;;;;5076341;28;20103;-84
2021/06/14 05:35:40;;;;;;;2.95;1.83;;;;;;;;;;5058024;28;20454;-83
2021/06/14 05:38:06;;;;;;;2.75;2.20;;;;;;;;;;5052776;28;20394;-83
2021/06/14 05:40:32;;;;;;;4.65;1.60;;;;;;;;;;5063515;28;20077;-85
2021/06/14 05:43:00;;;;;;;3.00;1.80;;;;;;;;;;5049910;28;20480;-81
2021/06/14 05:45:26;;;;;;;2.40;2.00;;;;;;;;;;5084207;28;20380;-82
2021/06/14 05:47:52;;;;;;;2.08;1.83;;;;;;;;;;5065486;28;20044;-82
2021/06/14 05:50:18;;;;;;;2.45;1.70;;;;;;;;;;5083954;28;20123;-82
2021/06/14 05:52:44;;;;;;;1.65;1.42;;;;;;;;;;5083073;28;20021;-82
2021/06/14 05:55:10;;;;;;;2.50;1.95;;;;;;;;;;5084045;28;20041;-83
2021/06/14 05:57:36;;;;;;;1.70;1.60;;;;;;;;;;5082608;28;20056;-82
2021/06/14 06:00:08;;;;;;;2.45;2.25;;;;;;;;;;5064801;28;20032;-83
2021/06/14 06:02:34;;;;;;;1.88;1.50;;;;;;;;;;5075812;28;20020;-83
2021/06/14 06:05:00;;;;;;;2.33;1.95;;;;;;;;;;5067524;28;20043;-80
2021/06/14 06:07:26;;;;;;;2.28;1.85;;;;;;;;;;5054897;28;20040;-84
2021/06/14 06:09:52;;;;;;;1.60;1.50;;;;;;;;;;5051647;28;20029;-84
2021/06/14 06:12:19;;;;;;;4.93;2.20;;;;;;;;;;5065129;28;20386;-82
2021/06/14 06:14:46;;;;;;;3.88;1.90;;;;;;;;;;5062568;28;20091;-83
2021/06/14 06:17:12;;;;;;;4.47;2.30;;;;;;;;;;5070488;28;20055;-84
2021/06/14 06:19:38;;;;;;;4.22;2.50;;;;;;;;;;5076503;28;20028;-84
2021/06/14 06:22:07;;;;;;;2.35;1.92;;;;;;;;;;5074113;28;20022;-83
2021/06/14 06:24:33;;;;;;;2.47;1.98;;;;;;;;;;5071786;28;20135;-82
2021/06/14 06:27:00;;;;;;;2.88;1.55;;;;;;;;;;5065475;28;20051;-82
2021/06/14 06:29:27;;;;;;;1.70;1.60;;;;;;;;;;5067617;28;20044;-80
2021/06/14 06:31:53;;;;;;;4.57;2.10;;;;;;;;;;5076784;28;20039;-83
2021/06/14 06:34:19;;;;;;;3.33;2.30;;;;;;;;;;5065909;28;20071;-82
2021/06/14 06:36:45;;;;;;;3.10;1.95;;;;;;;;;;5082876;28;20032;-80
2021/06/14 06:39:11;;;;;;;2.30;1.88;;;;;;;;;;5077871;28;20089;-82
2021/06/14 06:41:37;;;;;;;2.95;1.65;;;;;;;;;;5074184;28;20120;-84
2021/06/14 06:44:03;;;;;;;3.50;1.80;;;;;;;;;;5083599;28;20661;-83
2021/06/14 06:46:29;;;;;;;1.58;1.40;;;;;;;;;;5077139;28;20499;-79
2021/06/14 06:48:55;;;;;;;2.38;1.50;;;;;;;;;;5045831;28;20108;-82
2021/06/14 06:51:22;;;;;;;1.60;1.50;;;;;;;;;;5065592;28;20029;-82
2021/06/14 06:53:48;;;;;;;5.20;1.92;;;;;;;;;;5062221;28;20116;-82
2021/06/14 06:56:14;;;;;;;3.10;1.98;;;;;;;;;;5062331;28;20032;-81
2021/06/14 06:58:40;;;;;;;2.17;1.20;;;;;;;;;;5062913;28;20064;-80
2021/06/14 07:01:06;;;;;;;1.70;1.60;;;;;;;;;;5073623;28;20108;-82
2021/06/14 07:03:32;;;;;;;2.78;1.90;;;;;;;;;;5083478;28;20074;-81
2021/06/14 07:05:58;;;;;;;5.35;2.45;;;;;;;;;;5084527;28;20112;-79
2021/06/14 07:08:24;;;;;;;4.13;2.13;;;;;;;;;;5075649;28;20013;-79
2021/06/14 07:10:50;;;;;;;2.08;1.88;;;;;;;;;;5085399;28;20020;-79
2021/06/14 07:13:16;;;;;;;3.83;2.40;;;;;;;;;;5065216;28;20040;-79
2021/06/14 07:15:43;;;;;;;2.53;1.65;;;;;;;;;;5075771;28;20017;-80
2021/06/14 07:18:09;;;;;;;4.40;2.08;;;;;;;;;;5074789;28;20039;-79
2021/06/14 07:20:35;;;;;;;4.70;2.33;;;;;;;;;;5075785;28;20032;-78
2021/06/14 07:23:02;;;;;;;4.72;2.08;;;;;;;;;;5072070;28;20099;-80
2021/06/14 07:25:28;;;;;;;4.85;2.20;;;;;;;;;;5070138;28;20020;-81
2021/06/14 07:27:54;;;;;;;5.65;1.90;;;;;;;;;;5087587;28;20052;-83
2021/06/14 07:30:20;;;;;;;2.70;2.25;;;;;;;;;;5083789;28;20012;-84
2021/06/14 07:32:46;;;;;;;3.35;1.50;;;;;;;;;;5079211;28;20061;-82
2021/06/14 07:35:13;;;;;;;3.45;2.25;;;;;;;;;;5087744;28;20024;-82
2021/06/14 07:37:39;;;;;;;3.30;1.80;;;;;;;;;;5064872;28;20031;-79
2021/06/14 07:40:06;;;;;;;7.93;2.30;;;;;;;;;;5063082;28;20025;-80
2021/06/14 07:42:33;;;;;;;3.50;2.25;;;;;;;;;;5083657;28;20024;-82
2021/06/14 07:44:59;;;;;;;7.20;2.10;;;;;;;;;;5067060;28;20028;-81
2021/06/14 07:47:25;;;;;;;3.50;2.33;;;;;;;;;;5084279;28;20347;-81
2021/06/14 07:49:51;;;;;;;3.97;2.35;;;;;;;;;;5077991;28;20029;-80
2021/06/14 07:52:17;;;;;;;3.65;2.33;;;;;;;;;;5068980;28;20101;-79
2021/06/14 07:54:43;;;;;;;5.90;2.38;;;;;;;;;;5069637;28;20041;-81
2021/06/14 07:57:10;;;;;;;5.28;2.53;;;;;;;;;;5067314;28;20044;-80
2021/06/14 07:59:36;;;;;;;4.25;2.40;;;;;;;;;;5069976;28;20037;-80
2021/06/14 08:02:02;;;;;;;5.72;2.25;;;;;;;;;;5056881;28;20059;-81
2021/06/14 08:04:29;;;;;;;4.38;1.85;;;;;;;;;;5082197;28;20024;-81
2021/06/14 08:06:55;;;;;;;3.58;2.20;;;;;;;;;;5076897;28;20146;-81
2021/06/14 08:09:30;;;;;;;4.30;2.13;;;;;;;;;;5053672;28;20073;-82
2021/06/14 08:11:57;;;;;;;5.00;2.17;;;;;;;;;;5062167;28;20028;-80
2021/06/14 08:14:23;;;;;;;8.45;2.92;;;;;;;;;;5062125;28;20029;-81
2021/06/14 08:16:50;;;;;;;4.82;2.50;;;;;;;;;;5059911;28;20024;-83
2021/06/14 08:19:34;;;;;;;5.28;2.00;;;;;;;;;;5079674;28;20033;-82
2021/06/14 08:27:11;;;;;;;5.10;2.10;;;;;;;;;;5080522;28;20481;-82
2021/06/14 08:29:38;;;;;;;5.18;2.40;;;;;;;;;;5064200;28;20024;-78
2021/06/14 08:32:04;;;;;;;7.30;3.05;;;;;;;;;;5078291;28;20093;-80
2021/06/14 08:34:30;;;;;;;2.80;2.15;;;;;;;;;;5068813;28;20063;-81
2021/06/14 08:36:56;;;;;;;4.82;2.10;;;;;;;;;;5078874;28;20032;-81
2021/06/14 08:39:22;;;;;;;5.80;1.88;;;;;;;;;;5072975;28;20021;-81
2021/06/14 08:41:49;;;;;;;4.47;2.13;;;;;;;;;;5081363;28;20108;-80
2021/06/14 08:44:15;;;;;;;5.55;2.33;;;;;;;;;;5083617;28;20024;-79
2021/06/14 08:46:41;;;;;;;3.45;1.58;;;;;;;;;;5074500;28;20164;-79
2021/06/14 08:49:08;;;;;;;5.50;1.98;;;;;;;;;;5092523;28;20036;-81
2021/06/14 08:51:34;;;;;;;2.88;2.05;;;;;;;;;;5091721;28;20017;-79
2021/06/14 08:54:01;;;;;;;6.70;2.30;;;;;;;;;;5087695;28;20044;-79
2021/06/14 08:56:28;;;;;;;4.15;2.67;;;;;;;;;;5070763;28;20017;-81
2021/06/14 08:58:56;;;;;;;8.30;2.90;;;;;;;;;;5067784;28;20025;-81
2021/06/14 09:01:22;;;;;;;6.50;2.20;;;;;;;;;;5067844;22;20117;-81
2021/06/14 09:03:48;;;;;;;3.85;2.33;;;;;;;;;;5022319;28;20026;-79
2021/06/14 09:06:14;;;;;;;6.05;2.45;;;;;;;;;;5016108;28;20034;-80
2021/06/14 09:08:41;;;;;;;5.07;2.65;;;;;;;;;;5018490;28;20395;-81
2021/06/14 09:11:10;;;;;;;3.70;1.92;;;;;;;;;;5019368;28;20397;-79
2021/06/14 09:13:37;;;;;;;7.32;2.60;;;;;;;;;;5003635;28;20083;-80
2021/06/14 09:16:03;;;;;;;4.97;2.78;;;;;;;;;;5019334;28;20249;-79
2021/06/14 09:18:29;;;;;;;5.18;2.53;;;;;;;;;;5019781;28;20037;-80
2021/06/14 09:21:12;;;;;;;3.40;2.10;;;;;;;;;;4983003;28;20022;-80
2021/06/14 09:23:53;;;;;;;4.10;1.90;;;;;;;;;;5005787;28;20022;-78
2021/06/14 09:26:39;;;;;;;5.32;2.60;;;;;;;;;;4987682;28;20439;-78
2021/06/14 09:29:05;;;;;;;5.40;2.30;;;;;;;;;;5005027;28;20134;-78
2021/06/14 09:31:37;;;;;;;5.25;1.90;;;;;;;;;;4996068;28;20049;-80
2021/06/14 09:34:04;;;;;;;5.45;1.90;;;;;;;;;;5036250;28;20036;-79
2021/06/14 09:36:30;;;;;;;8.23;2.72;;;;;;;;;;5021901;28;20065;-80
2021/06/14 09:39:05;;;;;;;3.42;2.28;;;;;;;;;;5005545;28;20053;-79
2021/06/14 09:41:37;;;;;;;6.20;2.20;;;;;;;;;;4985586;28;20566;-79
2021/06/14 09:44:03;;;;;;;6.10;2.55;;;;;;;;;;5015159;28;20034;-77
2021/06/14 09:46:30;;;;;;;6.78;2.70;;;;;;;;;;5008299;28;20038;-80
2021/06/14 09:49:02;;;;;;;6.15;2.25;;;;;;;;;;5026271;28;20008;-79
2021/06/14 09:51:30;;;;;;;4.07;2.00;;;;;;;;;;5026394;28;20025;-80
2021/06/14 09:53:56;;;;;;;5.47;2.03;;;;;;;;;;5037606;28;20033;-81
2021/06/14 09:56:37;;;;;;;5.38;2.30;;;;;;;;;;5023349;28;20025;-80
2021/06/14 09:59:03;;;;;;;6.53;2.25;;;;;;;;;;5003918;28;20073;-79
2021/06/14 10:01:34;;;;;;;3.80;2.05;;;;;;;;;;5011504;28;20068;-79
2021/06/14 10:04:04;;;;;;;4.38;1.85;;;;;;;;;;5032601;28;20181;-79
2021/06/14 10:06:44;;;;;;;4.10;2.42;;;;;;;;;;5046657;28;20017;-81
2021/06/14 10:09:14;;;;;;;3.95;2.30;;;;;;;;;;5039442;28;20441;-79
2021/06/14 10:11:43;;;;;;;4.30;2.20;;;;;;;;;;5026221;28;20026;-80
2021/06/14 10:14:11;;;;;;;4.95;2.25;;;;;;;;;;5022466;28;20018;-80
2021/06/14 10:16:39;;;;;;;6.10;2.45;;;;;;;;;;5023861;28;20029;-79
2021/06/14 10:19:08;;;;;;;8.02;1.95;;;;;;;;;;5006712;28;20022;-79
2021/06/14 10:21:39;;;;;;;4.30;1.90;;;;;;;;;;5007909;28;20026;-80
2021/06/14 10:24:16;;;;;;;2.10;1.70;;;;;;;;;;5024004;28;20022;-80
2021/06/14 10:26:43;;;;;;;4.97;1.90;;;;;;;;;;5025728;28;20022;-79
2021/06/14 10:29:12;;;;;;;4.88;1.90;;;;;;;;;;4999398;28;20080;-79
2021/06/14 10:31:38;;;;;;;2.03;1.50;;;;;;;;;;5012501;28;20462;-80
2021/06/14 10:34:05;;;;;;;7.25;2.67;;;;;;;;;;5009034;28;20029;-80
2021/06/14 10:36:31;;;;;;;2.17;1.70;;;;;;;;;;5016639;28;20415;-80
2021/06/14 10:38:58;;;;;;;4.15;1.90;;;;;;;;;;4999683;28;20538;-80
2021/06/14 10:41:24;;;;;;;4.20;1.80;;;;;;;;;;5000674;28;20023;-80
2021/06/14 10:43:51;;;;;;;5.22;2.33;;;;;;;;;;5004098;28;20029;-81
2021/06/14 10:46:19;;;;;;;2.92;1.63;;;;;;;;;;4999703;28;20018;-81
2021/06/14 10:48:46;;;;;;;2.60;1.70;;;;;;;;;;5001672;28;20399;-80
2021/06/14 10:51:21;;;;;;;5.15;2.25;;;;;;;;;;5001245;28;20026;-79
2021/06/14 10:53:51;;;;;;;4.75;2.22;;;;;;;;;;4999362;28;20073;-81
2021/06/14 10:56:18;;;;;;;3.65;2.05;;;;;;;;;;5004591;28;20405;-80
2021/06/14 10:58:54;;;;;;;3.60;2.00;;;;;;;;;;4999672;28;20045;-78
2021/06/14 11:01:29;;;;;;;2.55;1.60;;;;;;;;;;5009148;28;20084;-81
2021/06/14 11:03:55;;;;;;;1.90;1.40;;;;;;;;;;5034639;28;20033;-82
2021/06/14 11:06:21;;;;;;;4.55;2.08;;;;;;;;;;5010929;28;20026;-81
2021/06/14 11:09:05;;;;;;;3.13;1.95;;;;;;;;;;5024405;28;20025;-80
2021/06/14 11:11:43;;;;;;;5.50;2.50;;;;;;;;;;4995726;28;20076;-81
2021/06/14 11:14:09;;;;;;;5.18;1.95;;;;;;;;;;5002719;28;20022;-81
2021/06/14 11:16:36;;;;;;;6.45;2.28;;;;;;;;;;4986287;28;20037;-80
2021/06/14 11:19:06;;;;;;;5.03;1.88;;;;;;;;;;5005343;28;20019;-81
2021/06/14 11:21:32;;;;;;;4.38;2.25;;;;;;;;;;5022565;28;20022;-81
2021/06/14 11:24:27;;;;;;;6.00;2.30;;;;;;;;;;5021928;28;20077;-81
2021/06/14 11:26:57;;;;;;;6.38;2.30;;;;;;;;;;5021530;28;20080;-80
2021/06/14 11:29:24;;;;;;;3.97;2.35;;;;;;;;;;5001720;28;20034;-80
2021/06/14 11:32:02;;;;;;;8.15;3.33;;;;;;;;;;5006164;28;20112;-82
2021/06/14 11:34:37;;;;;;;5.47;2.10;;;;;;;;;;5014267;28;20052;-82
2021/06/14 11:37:03;;;;;;;5.53;1.80;;;;;;;;;;5019549;28;20099;-82
2021/06/14 11:39:30;;;;;;;3.90;2.00;;;;;;;;;;5001951;28;20057;-81
2021/06/14 11:41:56;;;;;;;4.13;2.13;;;;;;;;;;5022677;28;20022;-81
2021/06/14 11:44:30;;;;;;;4.25;1.95;;;;;;;;;;5003823;28;20025;-81
2021/06/14 11:46:57;;;;;;;4.47;1.88;;;;;;;;;;5002362;28;20050;-82
2021/06/14 11:49:34;;;;;;;6.35;2.38;;;;;;;;;;5021481;28;20414;-81
2021/06/14 11:52:00;;;;;;;5.97;2.40;;;;;;;;;;5002348;28;20148;-81
2021/06/14 11:54:27;;;;;;;5.97;2.50;;;;;;;;;;5021201;28;20026;-83
2021/06/14 11:57:01;;;;;;;4.47;2.28;;;;;;;;;;5021107;28;20057;-82
2021/06/14 11:59:30;;;;;;;2.90;1.75;;;;;;;;;;5025313;28;20050;-83
2021/06/14 12:01:57;;;;;;;6.57;2.22;;;;;;;;;;5022152;28;20363;-82
2021/06/14 12:04:23;;;;;;;3.55;2.40;;;;;;;;;;5034899;28;20030;-82
2021/06/14 12:06:50;;;;;;;4.65;1.98;;;;;;;;;;5039360;28;20034;-82
2021/06/14 12:09:21;;;;;;;10.20;2.42;;;;;;;;;;5033410;28;20395;-81
2021/06/14 12:11:55;;;;;;;5.13;2.20;;;;;;;;;;5019895;28;20072;-83
2021/06/14 12:14:21;;;;;;;6.05;2.28;;;;;;;;;;5003331;28;20172;-83
2021/06/14 12:16:55;;;;;;;7.43;2.15;;;;;;;;;;5019175;28;20048;-83
2021/06/14 12:19:21;;;;;;;3.75;1.90;;;;;;;;;;5021709;28;20077;-79
2021/06/14 12:21:51;;;;;;;5.10;2.00;;;;;;;;;;5001403;28;20036;-80
2021/06/14 12:24:18;;;;;;;4.07;2.00;;;;;;;;;;5003872;28;20100;-82
2021/06/14 12:26:44;;;;;;;3.80;2.13;;;;;;;;;;5031246;28;20029;-82
2021/06/14 12:29:20;;;;;;;3.75;1.75;;;;;;;;;;5009833;28;20038;-81
2021/06/14 12:31:46;;;;;;;2.50;1.55;;;;;;;;;;5028062;28;20101;-82
2021/06/14 12:34:13;;;;;;;3.28;1.55;;;;;;;;;;5026162;28;20022;-79
2021/06/14 12:36:39;;;;;;;7.22;2.03;;;;;;;;;;5026523;28;20042;-81
2021/06/14 12:39:09;;;;;;;5.30;2.00;;;;;;;;;;5001655;28;20018;-82
2021/06/14 12:41:43;;;;;;;1.48;1.35;;;;;;;;;;5020961;28;20033;-81
2021/06/14 12:44:13;;;;;;;3.05;2.05;;;;;;;;;;5023728;28;20018;-81
2021/06/14 12:46:39;;;;;;;2.95;1.98;;;;;;;;;;5004510;28;20026;-81
2021/06/14 12:49:05;;;;;;;9.10;2.47;;;;;;;;;;5022393;28;20474;-81
2021/06/14 12:51:43;;;;;;;6.38;2.10;;;;;;;;;;5022010;28;20100;-81
2021/06/14 12:54:09;;;;;;;4.07;1.83;;;;;;;;;;5024380;28;20350;-80
2021/06/14 12:56:35;;;;;;;2.75;1.80;;;;;;;;;;5036523;28;20022;-82
2021/06/14 12:59:01;;;;;;;5.05;2.08;;;;;;;;;;5013890;28;20030;-80
2021/06/14 13:01:34;;;;;;;2.55;1.63;;;;;;;;;;5006866;28;20564;-80
2021/06/14 13:04:01;;;;;;;4.72;2.17;;;;;;;;;;5033680;28;20040;-80
2021/06/14 13:06:31;;;;;;;1.80;1.70;;;;;;;;;;5026340;28;20037;-81
2021/06/14 13:09:01;;;;;;;4.57;1.88;;;;;;;;;;5026005;28;20085;-80
2021/06/14 13:11:27;;;;;;;4.63;1.73;;;;;;;;;;5026703;28;20036;-82
2021/06/14 13:13:55;;;;;;;4.32;1.95;;;;;;;;;;5034233;28;20160;-82
2021/06/14 13:16:22;;;;;;;6.00;1.92;;;;;;;;;;5031547;28;20062;-81
2021/06/14 13:19:01;;;;;;;3.78;1.92;;;;;;;;;;5006626;28;20344;-81
2021/06/14 13:21:31;;;;;;;3.90;2.08;;;;;;;;;;5004241;28;20052;-81
2021/06/14 13:23:58;;;;;;;3.30;1.98;;;;;;;;;;5008479;28;20026;-82
2021/06/14 13:26:37;;;;;;;3.67;1.92;;;;;;;;;;5008745;28;20033;-81
2021/06/14 13:29:16;;;;;;;4.88;2.05;;;;;;;;;;5021135;28;20104;-82
2021/06/14 13:31:44;;;;;;;4.32;1.77;;;;;;;;;;5018383;28;20025;-81
2021/06/14 13:34:21;;;;;;;3.83;1.90;;;;;;;;;;5036161;28;20030;-81
2021/06/14 13:36:47;;;;;;;2.58;1.85;;;;;;;;;;5030749;28;20033;-81
2021/06/14 13:39:15;;;;;;;3.47;1.75;;;;;;;;;;5021350;28;20037;-80
2021/06/14 13:41:41;;;;;;;4.70;2.10;;;;;;;;;;5020327;28;20030;-81
2021/06/14 13:44:11;;;;;;;5.80;1.60;;;;;;;;;;5031137;28;20032;-82
2021/06/14 13:46:45;;;;;;;5.57;2.67;;;;;;;;;;5020344;28;20114;-81
2021/06/14 13:49:29;;;;;;;2.40;1.80;;;;;;;;;;5036526;28;20050;-81
2021/06/14 13:51:56;;;;;;;3.15;1.50;;;;;;;;;;5015928;28;20049;-81
2021/06/14 13:54:23;;;;;;;6.70;1.85;;;;;;;;;;5006037;28;20014;-81
2021/06/14 13:56:49;;;;;;;3.67;1.90;;;;;;;;;;5007174;28;20057;-82
2021/06/14 13:59:19;;;;;;;3.70;1.98;;;;;;;;;;5013651;28;20378;-82
2021/06/14 14:01:45;;;;;;;3.00;1.65;;;;;;;;;;5007217;28;20030;-80
2021/06/14 14:04:16;;;;;;;2.47;1.60;;;;;;;;;;5025742;28;20093;-80
2021/06/14 14:06:42;;;;;;;2.33;1.70;;;;;;;;;;5013021;28;20033;-81
2021/06/14 14:09:08;;;;;;;3.72;1.92;;;;;;;;;;5026324;28;20032;-83
2021/06/14 14:11:38;;;;;;;5.35;1.60;;;;;;;;;;5014164;28;20049;-81
2021/06/14 14:14:14;;;;;;;4.63;1.98;;;;;;;;;;5035674;28;20017;-79
2021/06/14 14:16:46;;;;;;;2.50;1.50;;;;;;;;;;5016067;28;20026;-82
2021/06/14 14:19:29;;;;;;;1.75;1.33;;;;;;;;;;5027010;28;20045;-83
2021/06/14 14:21:56;;;;;;;2.55;1.70;;;;;;;;;;4986718;28;20026;-82
2021/06/14 14:24:22;;;;;;;2.95;1.40;;;;;;;;;;4987179;28;20045;-81
2021/06/14 14:26:49;;;;;;;6.38;1.50;;;;;;;;;;5004454;28;20054;-82
2021/06/14 14:29:17;;;;;;;10.40;2.45;;;;;;;;;;5003241;28;20483;-80
2021/06/14 14:31:46;;;;;;;3.85;2.17;;;;;;;;;;5004439;28;20034;-81
2021/06/14 14:34:12;;;;;;;3.15;1.55;;;;;;;;;;5023837;28;20038;-82
2021/06/14 14:36:48;;;;;;;3.17;1.48;;;;;;;;;;5025428;28;20076;-81
2021/06/14 14:39:24;;;;;;;5.07;2.08;;;;;;;;;;5028295;28;20423;-81
2021/06/14 14:41:54;;;;;;;1.88;1.35;;;;;;;;;;5016376;28;20022;-81
2021/06/14 14:44:23;;;;;;;1.50;1.40;;;;;;;;;;5005461;28;20112;-81
2021/06/14 14:46:50;;;;;;;3.85;1.65;;;;;;;;;;5043230;28;20079;-81
2021/06/14 14:49:17;;;;;;;3.03;1.42;;;;;;;;;;5032508;28;20010;-80
2021/06/14 14:51:44;;;;;;;1.50;1.40;;;;;;;;;;5008515;28;20030;-79
2021/06/14 14:54:19;;;;;;;2.05;1.55;;;;;;;;;;5013443;28;20041;-81